Time;durP1;ratioP1;P1;durP2;ratioP2;P2;SDS_P1;SDS_P2;PMS_P1;PMS_P2;Temp;Humidity;BMP_temperature;BMP_pressure;BME280_temperature;BME280_humidity;BME280_pressure;Samples;Min_cycle;Max_cycle;Signal;HPM_P1;HPM_P2
2022/08/06 00:01:06;;;;;;;14.98;8.88;;;;;;;21.92;100.00;99621.56;5175438;27;20457;-49
2022/08/06 00:03:33;;;;;;;16.45;9.57;;;;;;;21.95;100.00;99623.50;5175155;27;20046;-50
2022/08/06 00:05:59;;;;;;;14.95;9.40;;;;;;;21.99;100.00;99621.41;5174960;27;20090;-52
2022/08/06 00:08:25;;;;;;;13.65;12.13;;;;;;;21.88;100.00;99629.22;5174810;27;20050;-51
2022/08/06 00:10:51;;;;;;;16.90;8.73;;;;;;;21.75;100.00;99627.06;5174869;27;20470;-51
2022/08/06 00:13:18;;;;;;;12.90;9.10;;;;;;;21.80;100.00;99629.38;5174830;27;20485;-51
2022/08/06 00:15:45;;;;;;;19.73;11.90;;;;;;;21.95;100.00;99629.84;5175070;27;20106;-50
2022/08/06 00:18:13;;;;;;;11.90;8.45;;;;;;;21.84;100.00;99632.88;5174866;27;20137;-49
2022/08/06 00:20:39;;;;;;;10.68;8.57;;;;;;;21.87;100.00;99625.66;5174649;27;20047;-51
2022/08/06 00:23:05;;;;;;;14.02;12.20;;;;;;;21.78;100.00;99629.00;5174923;27;20046;-53
2022/08/06 00:25:31;;;;;;;13.15;11.85;;;;;;;21.73;100.00;99626.72;5174717;27;20413;-49
2022/08/06 00:27:58;;;;;;;11.63;8.73;;;;;;;21.60;100.00;99634.94;5174752;27;20056;-51
2022/08/06 00:30:24;;;;;;;10.52;8.90;;;;;;;21.68;100.00;99632.03;5174554;27;20050;-49
2022/08/06 00:32:51;;;;;;;12.32;9.48;;;;;;;21.66;100.00;99628.84;5174694;27;20056;-52
2022/08/06 00:35:19;;;;;;;13.82;9.60;;;;;;;21.58;100.00;99628.22;5174509;27;20647;-49
2022/08/06 00:37:45;;;;;;;12.75;9.50;;;;;;;21.72;100.00;99625.13;5174438;27;20054;-49
2022/08/06 00:40:14;;;;;;;15.98;8.93;;;;;;;21.61;100.00;99624.56;5174310;27;20078;-50
2022/08/06 00:42:40;;;;;;;12.80;9.05;;;;;;;21.72;100.00;99625.13;5174282;27;20534;-50
2022/08/06 00:45:08;;;;;;;13.27;9.20;;;;;;;21.68;100.00;99632.03;5173385;27;20046;-51
2022/08/06 00:47:35;;;;;;;15.93;12.93;;;;;;;21.49;100.00;99620.44;5174064;27;20054;-48
2022/08/06 00:50:01;;;;;;;14.80;9.93;;;;;;;21.43;100.00;99619.34;5174355;27;20046;-48
2022/08/06 00:52:28;;;;;;;14.15;9.43;;;;;;;21.61;100.00;99622.56;5174139;27;20049;-48
2022/08/06 00:54:54;;;;;;;14.98;9.98;;;;;;;21.71;100.00;99625.59;5174435;27;20058;-48
2022/08/06 00:57:21;;;;;;;12.60;9.93;;;;;;;21.56;100.00;99630.66;5174348;27;20140;-49
2022/08/06 00:59:47;;;;;;;13.10;9.90;;;;;;;21.51;100.00;99620.78;5174199;27;20046;-53
2022/08/06 01:02:13;;;;;;;13.93;9.40;;;;;;;21.46;100.00;99617.69;5174094;27;20046;-50
2022/08/06 01:04:39;;;;;;;14.77;9.70;;;;;;;21.42;100.00;99614.97;5174043;27;20097;-48
2022/08/06 01:07:06;;;;;;;17.00;10.65;;;;;;;21.53;100.00;99618.34;5173876;27;20057;-49
2022/08/06 01:09:32;;;;;;;13.57;9.32;;;;;;;21.36;100.00;99619.50;5173934;27;20054;-52
2022/08/06 01:11:59;;;;;;;15.40;8.85;;;;;;;21.31;100.00;99612.34;5174003;27;20421;-48
2022/08/06 01:14:25;;;;;;;15.77;10.82;;;;;;;21.33;100.00;99606.38;5173828;27;20046;-49
2022/08/06 01:16:57;;;;;;;17.33;10.55;;;;;;;21.36;100.00;99613.91;5173982;27;20557;-50
2022/08/06 01:19:40;;;;;;;12.63;10.00;;;;;;;21.23;100.00;99610.16;5173645;27;20050;-49
2022/08/06 01:22:17;;;;;;;17.40;10.38;;;;;;;21.25;100.00;99608.50;5174092;27;20504;-51
2022/08/06 01:25:16;;;;;;;13.40;10.27;;;;;;;21.17;100.00;99609.06;5173596;27;20050;-49
2022/08/06 01:27:53;;;;;;;16.38;9.65;;;;;;;21.06;100.00;99610.03;5173743;27;20049;-49
2022/08/06 01:30:23;;;;;;;13.35;10.40;;;;;;;21.14;100.00;99607.91;5173531;27;20046;-51
2022/08/06 01:32:56;;;;;;;13.85;10.10;;;;;;;21.07;100.00;99617.19;5173603;27;20049;-52
2022/08/06 01:35:29;;;;;;;14.37;9.80;;;;;;;21.19;100.00;99618.56;5173806;27;20430;-49
2022/08/06 01:37:59;;;;;;;15.95;10.43;;;;;;;21.11;100.00;99620.69;5173452;27;20050;-49
2022/08/06 01:40:31;;;;;;;15.23;11.13;;;;;;;21.03;100.00;99607.31;5173725;27;20094;-50
2022/08/06 01:43:00;;;;;;;16.17;10.82;;;;;;;21.02;100.00;99609.28;5173353;27;20094;-51
2022/08/06 01:45:29;;;;;;;13.57;10.40;;;;;;;21.07;100.00;99608.81;5173573;27;20046;-52
2022/08/06 01:47:59;;;;;;;18.85;10.88;;;;;;;21.05;100.00;99619.59;5173491;27;20060;-48
2022/08/06 01:50:30;;;;;;;18.13;11.02;;;;;;;21.05;100.00;99613.25;5173240;27;20419;-52
2022/08/06 01:52:58;;;;;;;14.15;10.95;;;;;;;21.01;100.00;99616.09;5173370;27;20510;-51
2022/08/06 01:55:27;;;;;;;21.67;11.63;;;;;;;21.01;100.00;99618.88;5173362;27;20046;-51
2022/08/06 01:57:57;;;;;;;14.27;10.85;;;;;;;21.00;100.00;99614.53;5172772;27;20090;-52
2022/08/06 02:00:25;;;;;;;17.95;10.27;;;;;;;20.80;100.00;99602.53;5173015;27;20433;-51
2022/08/06 02:02:53;;;;;;;14.70;10.93;;;;;;;20.76;100.00;99593.44;5173074;27;20042;-53
2022/08/06 02:05:22;;;;;;;17.20;10.48;;;;;;;20.84;100.00;99589.31;5172963;27;20085;-49
2022/08/06 02:07:51;;;;;;;16.85;10.98;;;;;;;20.80;100.00;99591.41;5173437;27;20562;-50
2022/08/06 02:10:21;;;;;;;15.15;10.98;;;;;;;20.86;100.00;99592.47;5173032;27;20056;-50
2022/08/06 02:12:49;;;;;;;18.33;10.60;;;;;;;20.95;100.00;99609.44;5173475;27;20057;-51
2022/08/06 02:15:19;;;;;;;16.25;9.90;;;;;;;20.83;100.00;99602.47;5173363;27;20544;-52
2022/08/06 02:17:50;;;;;;;22.58;11.13;;;;;;;20.78;100.00;99589.00;5172835;27;20056;-49
2022/08/06 02:20:19;;;;;;;13.95;10.93;;;;;;;20.84;100.00;99597.69;5172897;27;20519;-51
2022/08/06 02:22:47;;;;;;;17.58;10.85;;;;;;;20.96;100.00;99608.22;5172798;27;20481;-51
2022/08/06 02:25:16;;;;;;;17.27;10.52;;;;;;;20.95;100.00;99612.22;5172826;27;20516;-50
2022/08/06 02:27:46;;;;;;;14.05;10.50;;;;;;;20.92;100.00;99599.13;5172557;27;20046;-48
2022/08/06 02:30:13;;;;;;;20.10;10.48;;;;;;;20.85;100.00;99604.81;5172609;27;20101;-50
2022/08/06 02:32:40;;;;;;;14.52;10.50;;;;;;;20.85;100.00;99604.81;5172881;27;20042;-48
2022/08/06 02:35:08;;;;;;;20.02;10.98;;;;;;;20.81;100.00;99602.09;5172834;27;20050;-49
2022/08/06 02:37:39;;;;;;;17.13;10.93;;;;;;;20.74;100.00;99590.28;5172734;27;20111;-49
2022/08/06 02:40:10;;;;;;;15.23;11.05;;;;;;;20.71;100.00;99600.28;5172629;27;20050;-49
2022/08/06 02:42:43;;;;;;;17.52;10.63;;;;;;;20.62;100.00;99580.53;5172682;27;20054;-49
2022/08/06 02:45:15;;;;;;;16.33;11.65;;;;;;;20.61;100.00;99590.88;5172431;27;20046;-48
2022/08/06 02:47:49;;;;;;;17.13;11.55;;;;;;;20.63;100.00;99582.91;5172606;27;20046;-50
2022/08/06 02:50:19;;;;;;;19.48;12.27;;;;;;;20.62;100.00;99584.09;5172574;27;20448;-49
2022/08/06 02:52:48;;;;;;;18.00;11.73;;;;;;;20.63;100.00;99577.34;5172509;27;20547;-48
2022/08/06 02:55:18;;;;;;;22.67;11.18;;;;;;;20.69;100.00;99591.53;5172307;27;20050;-50
2022/08/06 02:57:51;;;;;;;16.08;11.63;;;;;;;20.61;100.00;99582.53;5172306;27;20060;-51
2022/08/06 03:00:18;;;;;;;19.42;12.80;;;;;;;20.66;100.00;99584.06;5172197;27;20054;-49
2022/08/06 03:02:47;;;;;;;18.83;11.07;;;;;;;20.76;100.00;99576.72;5172197;27;20046;-49
2022/08/06 03:05:17;;;;;;;19.85;10.50;;;;;;;20.99;100.00;99582.28;5172421;27;20054;-50
2022/08/06 03:07:47;;;;;;;15.52;10.02;;;;;;;21.30;100.00;99608.00;5172387;27;20046;-50
2022/08/06 03:10:17;;;;;;;19.67;10.70;;;;;;;21.47;100.00;99630.44;5175703;27;20427;-49
2022/08/06 03:12:43;;;;;;;15.05;10.43;;;;;;;21.69;100.00;99644.75;5175819;27;20046;-48
2022/08/06 03:15:11;;;;;;;14.18;9.82;;;;;;;21.56;100.00;99636.25;5176235;27;20053;-49
2022/08/06 03:17:39;;;;;;;17.23;13.30;;;;;;;21.90;100.00;99640.75;5176026;27;20050;-49
2022/08/06 03:20:08;;;;;;;12.98;9.45;;;;;;;21.98;100.00;99644.97;5175957;27;20053;-49
2022/08/06 03:22:37;;;;;;;14.35;9.45;;;;;;;22.31;100.00;99654.25;5175689;27;20053;-49
2022/08/06 03:25:06;;;;;;;16.00;9.95;;;;;;;22.80;100.00;99640.34;5175871;27;20111;-48
2022/08/06 03:27:34;;;;;;;14.82;12.07;;;;;;;22.90;100.00;99597.34;5175774;27;20050;-50
2022/08/06 03:30:01;;;;;;;14.15;9.35;;;;;;;23.20;100.00;99579.41;5175545;27;20540;-49
2022/08/06 03:32:28;;;;;;;16.90;8.90;;;;;;;23.43;100.00;99510.47;5175843;27;20042;-49
2022/08/06 03:34:56;;;;;;;12.90;11.60;;;;;;;23.57;100.00;99467.28;5175532;27;20096;-49
2022/08/06 03:37:24;;;;;;;14.68;8.55;;;;;;;23.98;100.00;99370.44;5175831;27;20046;-49
2022/08/06 03:39:52;;;;;;;14.13;8.88;;;;;;;23.84;100.00;99338.09;5175358;27;20527;-49
2022/08/06 03:42:18;;;;;;;12.13;8.80;;;;;;;24.14;100.00;99305.84;5175682;27;20046;-49
2022/08/06 03:44:45;;;;;;;10.02;8.88;;;;;;;24.23;100.00;99252.72;5175649;27;20412;-48
2022/08/06 03:47:14;;;;;;;12.48;11.13;;;;;;;24.45;100.00;99202.28;5175571;27;20050;-48
2022/08/06 03:49:44;;;;;;;15.80;9.82;;;;;;;24.96;100.00;99094.53;5175546;27;20568;-50
2022/08/06 03:52:16;;;;;;;12.25;10.88;;;;;;;24.68;100.00;99099.31;5175487;27;20050;-49
2022/08/06 03:54:46;;;;;;;11.02;10.00;;;;;;;24.53;100.00;99124.34;5175538;27;20072;-48
2022/08/06 03:57:18;;;;;;;12.05;10.77;;;;;;;24.45;100.00;99146.25;5175208;27;20060;-49
2022/08/06 03:59:48;;;;;;;9.13;8.20;;;;;;;25.00;100.00;99059.50;5175510;27;20046;-48
2022/08/06 04:02:17;;;;;;;11.20;10.00;;;;;;;25.47;100.00;98920.78;5174913;27;20102;-48
2022/08/06 04:04:46;;;;;;;15.18;10.90;;;;;;;25.56;100.00;98914.34;5175430;27;20042;-48
2022/08/06 04:07:14;;;;;;;11.50;10.13;;;;;;;25.64;100.00;98828.53;5174944;27;20093;-49
2022/08/06 04:09:42;;;;;;;12.38;10.35;;;;;;;25.60;100.00;98909.34;5175252;27;20050;-49
2022/08/06 04:12:09;;;;;;;10.95;9.77;;;;;;;25.95;100.00;98748.81;5175286;27;20161;-49
2022/08/06 04:14:36;;;;;;;10.75;9.65;;;;;;;26.15;100.00;98742.56;5174957;27;20594;-50
2022/08/06 04:17:04;;;;;;;12.85;10.13;;;;;;;25.91;100.00;98673.19;5175451;27;20072;-49
2022/08/06 04:19:31;;;;;;;10.85;9.85;;;;;;;26.31;100.00;98660.63;5174994;27;20061;-51
2022/08/06 04:21:57;;;;;;;10.95;8.88;;;;;;;26.52;100.00;98655.88;5175265;27;20042;-49
2022/08/06 04:24:25;;;;;;;16.75;9.45;;;;;;;26.80;100.00;98574.78;5175244;27;20049;-49
2022/08/06 04:26:53;;;;;;;10.52;9.20;;;;;;;26.49;100.00;98472.16;5175458;27;20046;-49
2022/08/06 04:29:21;;;;;;;13.32;9.45;;;;;;;26.69;100.00;98445.28;5174667;27;20050;-49
2022/08/06 04:31:51;;;;;;;11.52;10.27;;;;;;;27.36;100.00;98409.47;5175018;27;20077;-49
2022/08/06 04:34:22;;;;;;;12.57;8.98;;;;;;;27.39;100.00;98374.72;5174719;27;20050;-48
2022/08/06 04:36:49;;;;;;;10.15;9.00;;;;;;;28.02;100.00;98311.91;5174748;27;20058;-49
2022/08/06 04:39:17;;;;;;;13.18;9.35;;;;;;;28.35;100.00;98279.50;5174603;27;20050;-50
2022/08/06 04:41:44;;;;;;;10.75;9.63;;;;;;;28.54;100.00;98257.28;5174573;27;20529;-51
2022/08/06 04:44:11;;;;;;;12.57;9.00;;;;;;;29.01;100.00;98206.81;5174562;27;20432;-49
2022/08/06 04:46:37;;;;;;;10.13;9.05;;;;;;;27.63;100.00;98249.75;5174303;27;20046;-50
2022/08/06 04:49:04;;;;;;;9.77;8.50;;;;;;;28.91;100.00;98211.94;5174494;27;20076;-53
2022/08/06 04:51:31;;;;;;;13.32;9.48;;;;;;;29.62;100.00;98174.88;5174298;27;20431;-51
2022/08/06 04:53:57;;;;;;;11.00;8.65;;;;;;;29.87;100.00;98164.50;5174666;27;20485;-52
2022/08/06 04:56:23;;;;;;;11.68;8.57;;;;;;;29.90;100.00;98159.88;5174152;27;20047;-50
2022/08/06 04:58:49;;;;;;;8.80;7.82;;;;;;;30.38;100.00;98167.81;5174500;27;20046;-52
2022/08/06 05:01:16;;;;;;;11.63;8.45;;;;;;;30.46;100.00;98168.81;5174189;27;20056;-53
2022/08/06 05:03:42;;;;;;;10.05;8.50;;;;;;;30.44;100.00;98179.09;5174137;27;20459;-51
2022/08/06 05:06:31;;;;;;;9.88;8.35;;;;;;;30.51;100.00;98174.94;5174078;27;20509;-52
2022/08/06 05:09:02;;;;;;;8.82;8.02;;;;;;;30.91;100.00;98170.50;5174044;27;20058;-50
2022/08/06 05:11:33;;;;;;;8.85;8.02;;;;;;;29.67;100.00;98157.16;5174096;27;20058;-49
2022/08/06 05:14:04;;;;;;;11.65;8.38;;;;;;;30.12;100.00;98151.25;5173821;27;20137;-49
2022/08/06 05:16:34;;;;;;;11.52;8.23;;;;;;;29.77;100.00;98154.81;5173793;27;20503;-50
2022/08/06 05:19:04;;;;;;;10.68;8.55;;;;;;;29.62;100.00;98148.69;5173583;27;20050;-50
2022/08/06 05:21:35;;;;;;;11.85;8.80;;;;;;;28.44;100.00;98180.66;5173992;27;20046;-50
2022/08/06 05:24:03;;;;;;;11.25;9.23;;;;;;;28.88;100.00;98184.75;5173755;27;20523;-49
2022/08/06 05:26:30;;;;;;;9.25;8.32;;;;;;;28.72;100.00;98182.69;5173610;27;20054;-52
2022/08/06 05:28:56;;;;;;;9.43;8.52;;;;;;;28.09;100.00;98217.69;5173898;27;20057;-49
2022/08/06 05:31:30;;;;;;;16.20;9.73;;;;;;;27.78;100.00;98241.91;5172796;27;20082;-50
2022/08/06 05:33:56;;;;;;;10.82;9.65;;;;;;;27.55;100.00;98288.06;5174009;27;20050;-51
2022/08/06 05:36:22;;;;;;;9.98;9.00;;;;;;;27.73;100.00;98331.97;5173423;27;20046;-51
2022/08/06 05:38:49;;;;;;;13.45;9.43;;;;;;;26.81;100.00;98407.59;5173657;27;20054;-48
2022/08/06 05:41:15;;;;;;;10.90;9.60;;;;;;;26.78;100.00;98554.81;5173389;27;20145;-50
2022/08/06 05:43:41;;;;;;;14.07;10.43;;;;;;;27.36;100.00;98434.03;5173435;27;20075;-48
2022/08/06 05:46:09;;;;;;;12.65;10.23;;;;;;;27.77;100.00;98388.84;5173263;27;20050;-49
2022/08/06 05:48:42;;;;;;;11.35;10.35;;;;;;;27.76;100.00;98331.75;5173277;27;20057;-49
2022/08/06 05:51:15;;;;;;;13.30;10.13;;;;;;;28.74;100.00;98242.19;5173322;27;20050;-51
2022/08/06 05:53:47;;;;;;;12.70;9.75;;;;;;;28.97;100.00;98172.44;5173250;27;20138;-53
2022/08/06 05:56:23;;;;;;;9.83;8.80;;;;;;;28.94;100.00;98190.41;5173489;27;20042;-49
2022/08/06 05:58:59;;;;;;;10.90;9.38;;;;;;;29.98;100.00;98143.91;5173197;27;20284;-50
2022/08/06 06:01:26;;;;;;;13.00;9.25;;;;;;;30.11;100.00;98146.91;5173374;27;20049;-50
2022/08/06 06:03:56;;;;;;;11.18;9.25;;;;;;;31.60;100.00;98152.31;5172962;27;20047;-49
2022/08/06 06:06:24;;;;;;;15.30;9.73;;;;;;;31.55;100.00;98187.13;5173158;27;20056;-50
2022/08/06 06:08:50;;;;;;;11.73;9.40;;;;;;;30.38;100.00;98156.50;5173051;27;20058;-51
2022/08/06 06:11:17;;;;;;;10.40;9.13;;;;;;;31.54;100.00;98180.69;5172855;27;20405;-50
2022/08/06 06:13:45;;;;;;;11.45;9.50;;;;;;;30.70;100.00;98156.78;5172901;27;20174;-49
2022/08/06 06:16:21;;;;;;;11.98;9.48;;;;;;;32.18;100.00;98187.88;5172981;27;20046;-50
2022/08/06 06:19:08;;;;;;;11.10;10.00;;;;;;;32.29;100.00;98216.06;5173198;27;20129;-53
2022/08/06 06:21:44;;;;;;;11.77;10.50;;;;;;;32.60;100.00;98222.38;5172623;27;20106;-53
2022/08/06 06:24:16;;;;;;;12.25;9.73;;;;;;;31.65;100.00;98194.72;5173155;27;20050;-49
2022/08/06 06:26:48;;;;;;;12.35;9.55;;;;;;;32.05;100.00;98200.66;5172864;27;20420;-52
2022/08/06 06:29:31;;;;;;;12.87;9.80;;;;;;;31.82;100.00;98220.03;5172796;27;20050;-50
2022/08/06 06:32:03;;;;;;;10.77;9.67;;;;;;;33.20;100.00;98264.50;5172761;27;20283;-50
2022/08/06 06:34:42;;;;;;;11.27;9.18;;;;;;;31.39;100.00;98171.88;5172693;27;20718;-52
2022/08/06 06:37:19;;;;;;;11.65;9.27;;;;;;;31.96;100.00;98166.28;5172794;27;20052;-54
2022/08/06 06:39:54;;;;;;;10.07;9.18;;;;;;;32.55;100.00;98192.75;5172404;27;20050;-54
2022/08/06 06:42:26;;;;;;;13.90;9.82;;;;;;;33.10;100.00;98238.59;5172351;27;20088;-53
2022/08/06 06:45:02;;;;;;;10.63;9.30;;;;;;;34.08;100.00;98280.47;5172458;27;20093;-51
2022/08/06 06:47:36;;;;;;;12.00;10.10;;;;;;;33.18;100.00;98233.81;5172373;27;20101;-51
2022/08/06 06:50:11;;;;;;;12.02;10.40;;;;;;;31.78;100.00;98182.72;5172639;27;20497;-53
2022/08/06 06:52:40;;;;;;;11.32;9.85;;;;;;;32.46;100.00;98219.47;5172247;27;20050;-50
2022/08/06 06:55:11;;;;;;;14.27;9.80;;;;;;;31.75;100.00;98171.69;5172640;27;20080;-52
2022/08/06 06:57:53;;;;;;;12.13;9.23;;;;;;;32.36;100.00;98189.94;5172196;27;20064;-53
2022/08/06 07:00:19;;;;;;;9.30;8.47;;;;;;;32.35;100.00;98168.53;5172324;27;20046;-50
2022/08/06 07:02:49;;;;;;;9.75;8.80;;;;;;;32.52;100.00;98193.84;5172361;27;20091;-53
2022/08/06 07:05:16;;;;;;;9.82;8.80;;;;;;;32.53;100.00;98201.06;5172173;27;20050;-53
2022/08/06 07:07:46;;;;;;;12.30;9.48;;;;;;;32.97;100.00;98239.34;5172300;27;20057;-52
2022/08/06 07:10:13;;;;;;;9.73;8.82;;;;;;;33.67;100.00;98287.44;5172042;27;20140;-53
2022/08/06 07:12:44;;;;;;;12.35;8.35;;;;;;;34.25;100.00;98293.56;5172332;27;20056;-52
2022/08/06 07:15:12;;;;;;;12.93;8.40;;;;;;;34.33;100.00;98320.81;5172122;27;20046;-54
2022/08/06 07:17:39;;;;;;;14.02;8.55;;;;;;;33.90;100.00;98321.13;5172179;27;20064;-53
2022/08/06 07:20:09;;;;;;;9.63;8.55;;;;;;;33.16;100.00;98267.69;5172151;27;20545;-54
2022/08/06 07:22:36;;;;;;;11.48;8.90;;;;;;;32.57;100.00;98232.72;5172332;27;20502;-53
2022/08/06 07:25:06;;;;;;;9.57;8.45;;;;;;;33.90;100.00;98259.34;5171773;27;20050;-54
2022/08/06 07:27:35;;;;;;;9.68;8.77;;;;;;;33.67;100.00;98290.28;5171988;27;20476;-53
2022/08/06 07:30:03;;;;;;;8.80;7.90;;;;;;;34.57;100.00;98302.72;5171911;27;20390;-53
2022/08/06 07:32:31;;;;;;;9.88;8.20;;;;;;;34.59;100.00;98379.78;5171684;27;20046;-54
2022/08/06 07:34:58;;;;;;;8.65;7.78;;;;;;;34.83;100.00;98346.66;5171997;27;20068;-52
2022/08/06 07:37:26;;;;;;;14.52;8.27;;;;;;;34.53;100.00;98319.38;5171874;27;20050;-53
2022/08/06 07:39:56;;;;;;;10.18;8.10;;;;;;;33.90;100.00;98338.19;5171629;27;20133;-53
2022/08/06 07:42:24;;;;;;;9.82;8.50;;;;;;;33.83;100.00;98307.56;5171551;27;20046;-54
2022/08/06 07:44:56;;;;;;;9.02;8.18;;;;;;;33.39;100.00;98290.00;5171636;27;20050;-50
2022/08/06 07:47:28;;;;;;;9.25;8.45;;;;;;;32.94;100.00;98280.13;5171862;27;20052;-53
2022/08/06 07:49:58;;;;;;;10.60;9.55;;;;;;;33.78;100.00;98262.97;5171850;27;20046;-53
2022/08/06 07:52:25;;;;;;;10.50;8.82;;;;;;;34.17;100.00;98296.31;5171628;27;20102;-54
2022/08/06 07:54:52;;;;;;;13.65;8.88;;;;;;;33.72;100.00;98255.31;5172296;27;20054;-53
2022/08/06 07:57:19;;;;;;;10.65;9.20;;;;;;;33.56;100.00;98276.28;5175349;27;20089;-51
2022/08/06 07:59:47;;;;;;;11.05;8.45;;;;;;;33.47;100.00;98282.38;5174980;27;20058;-53
2022/08/06 08:02:15;;;;;;;12.05;8.10;;;;;;;33.41;100.00;98213.53;5175062;27;20528;-54
2022/08/06 08:07:28;;;;;;;11.77;9.40;;;;;;;33.38;100.00;98257.22;5175065;27;20074;-54
2022/08/06 08:09:56;;;;;;;12.88;8.73;;;;;;;34.47;100.00;98304.47;5174875;27;20505;-50
2022/08/06 08:12:24;;;;;;;15.88;10.10;;;;;;;34.06;100.00;98276.66;5175207;27;20050;-51
2022/08/06 08:14:51;;;;;;;9.43;8.30;;;;;;;32.58;100.00;98235.00;5175123;27;20057;-55
2022/08/06 08:17:17;;;;;;;13.95;9.32;;;;;;;32.51;100.00;98144.84;5175005;27;20142;-52
2022/08/06 08:19:44;;;;;;;9.18;8.30;;;;;;;33.78;100.00;98223.16;5174663;27;20493;-54
2022/08/06 08:22:13;;;;;;;12.07;8.02;;;;;;;33.24;100.00;98284.84;5174677;27;20046;-54
2022/08/06 08:24:41;;;;;;;13.27;8.05;;;;;;;34.44;100.00;98340.47;5174804;27;20086;-56
2022/08/06 08:27:09;;;;;;;9.13;7.95;;;;;;;34.69;100.00;98357.34;5174850;27;20046;-52
2022/08/06 08:29:35;;;;;;;8.88;8.07;;;;;;;32.78;100.00;98315.22;5174721;27;20142;-51
2022/08/06 08:32:02;;;;;;;13.48;8.60;;;;;;;33.72;100.00;98280.09;5174605;27;20047;-54
2022/08/06 08:34:29;;;;;;;8.60;7.88;;;;;;;33.78;100.00;98258.03;5174484;27;20461;-56
2022/08/06 08:36:55;;;;;;;10.50;8.60;;;;;;;33.08;100.00;98244.06;5174409;27;20056;-51
2022/08/06 08:39:22;;;;;;;15.55;8.10;;;;;;;32.98;100.00;98158.53;5174689;27;20050;-53
2022/08/06 08:41:52;;;;;;;12.32;9.40;;;;;;;32.28;100.00;98135.91;5174680;27;20050;-53
2022/08/06 08:44:23;;;;;;;10.60;8.68;;;;;;;31.83;100.00;98101.78;5174405;27;20054;-51
2022/08/06 08:46:50;;;;;;;12.35;9.25;;;;;;;32.25;100.00;98119.22;5174664;27;20057;-53
2022/08/06 08:49:20;;;;;;;12.82;8.73;;;;;;;32.98;100.00;98137.91;5174218;27;20141;-51
2022/08/06 08:51:47;;;;;;;10.65;8.60;;;;;;;32.69;100.00;98106.41;5174734;27;20133;-52
2022/08/06 08:54:17;;;;;;;9.38;8.50;;;;;;;31.70;100.00;98122.28;5174480;27;20054;-52
2022/08/06 08:56:44;;;;;;;13.25;8.65;;;;;;;31.44;100.00;98076.81;5174469;27;20145;-53
2022/08/06 08:59:11;;;;;;;11.75;8.50;;;;;;;31.00;100.00;98059.03;5174018;27;20046;-53
2022/08/06 09:01:39;;;;;;;9.43;8.43;;;;;;;29.92;100.00;98008.31;5174213;27;20046;-51
2022/08/06 09:04:06;;;;;;;9.80;8.82;;;;;;;29.95;100.00;98004.44;5173842;27;20057;-54
2022/08/06 09:06:34;;;;;;;9.27;8.38;;;;;;;29.99;100.00;98002.09;5172717;27;20474;-51
2022/08/06 09:09:03;;;;;;;11.02;9.02;;;;;;;29.73;100.00;98007.44;5174137;27;20081;-50
2022/08/06 09:11:31;;;;;;;10.10;8.75;;;;;;;30.54;100.00;98026.81;5174019;27;20046;-53
2022/08/06 09:14:00;;;;;;;13.57;9.00;;;;;;;30.84;100.00;98041.69;5174092;27;20042;-54
2022/08/06 09:16:26;;;;;;;12.15;9.50;;;;;;;31.68;100.00;98065.38;5173737;27;20052;-53
2022/08/06 09:18:53;;;;;;;11.80;10.30;;;;;;;32.00;100.00;98150.50;5173995;27;20057;-51
2022/08/06 09:21:20;;;;;;;11.77;10.65;;;;;;;31.90;100.00;98103.25;5173931;27;20060;-53
2022/08/06 09:23:46;;;;;;;9.65;8.68;;;;;;;30.19;100.00;98053.84;5173788;27;20048;-51
2022/08/06 09:26:12;;;;;;;10.70;9.38;;;;;;;30.14;100.00;98012.25;5173556;27;20094;-52
2022/08/06 09:28:42;;;;;;;12.48;8.30;;;;;;;30.30;100.00;98053.78;5173689;27;20054;-53
2022/08/06 09:31:11;;;;;;;10.32;8.15;;;;;;;30.71;100.00;98035.91;5173658;27;20053;-52
2022/08/06 09:33:39;;;;;;;12.23;9.05;;;;;;;29.92;100.00;98036.56;5173718;27;20413;-50
2022/08/06 09:36:08;;;;;;;10.00;9.10;;;;;;;31.09;100.00;98022.63;5173938;27;20046;-51
2022/08/06 09:38:46;;;;;;;9.23;8.20;;;;;;;32.59;100.00;98130.81;5173504;27;20046;-49
2022/08/06 09:41:13;;;;;;;10.07;8.63;;;;;;;32.00;100.00;98139.16;5173630;27;20052;-53
2022/08/06 09:43:41;;;;;;;10.27;9.10;;;;;;;32.52;100.00;98128.59;5173522;27;20042;-52
2022/08/06 09:46:08;;;;;;;12.15;8.40;;;;;;;33.31;100.00;98226.63;5173563;27;20052;-51
2022/08/06 09:48:35;;;;;;;10.05;8.35;;;;;;;32.41;100.00;98199.66;5173484;27;20050;-51
2022/08/06 09:51:01;;;;;;;12.25;9.13;;;;;;;31.34;100.00;98116.03;5173299;27;20049;-49
2022/08/06 09:53:28;;;;;;;9.90;8.15;;;;;;;30.79;100.00;98031.22;5173251;27;20050;-49
2022/08/06 09:55:56;;;;;;;9.30;8.25;;;;;;;31.24;100.00;98050.50;5173203;27;20053;-50
2022/08/06 09:58:32;;;;;;;16.20;9.05;;;;;;;30.66;100.00;98034.66;5173243;27;20677;-50
2022/08/06 10:01:12;;;;;;;10.23;8.50;;;;;;;31.69;100.00;98114.31;5173204;27;20428;-51
2022/08/06 10:03:39;;;;;;;13.07;8.45;;;;;;;30.68;100.00;98116.91;5173254;27;20056;-51
2022/08/06 10:06:10;;;;;;;11.13;8.48;;;;;;;30.84;100.00;98058.69;5173150;27;20047;-49
2022/08/06 10:08:36;;;;;;;9.57;8.82;;;;;;;30.25;100.00;98046.09;5173239;27;20046;-52
2022/08/06 10:11:03;;;;;;;10.95;8.20;;;;;;;30.38;100.00;98037.00;5173061;27;20046;-52
2022/08/06 10:13:30;;;;;;;9.32;8.48;;;;;;;31.59;100.00;98060.09;5172985;27;20071;-51
2022/08/06 10:15:59;;;;;;;9.73;7.93;;;;;;;31.67;100.00;98105.59;5172920;27;20046;-52
2022/08/06 10:18:41;;;;;;;8.75;7.80;;;;;;;31.23;100.00;98088.59;5172412;27;20046;-53
2022/08/06 10:21:11;;;;;;;9.02;8.10;;;;;;;31.05;100.00;98086.50;5173061;27;20042;-51
2022/08/06 10:23:40;;;;;;;10.95;8.10;;;;;;;30.10;100.00;98049.28;5172724;27;20053;-53
2022/08/06 10:26:10;;;;;;;10.48;8.55;;;;;;;30.19;100.00;98002.97;5172687;27;20141;-52
2022/08/06 10:28:37;;;;;;;10.23;8.30;;;;;;;29.67;100.00;97984.13;5172682;27;20137;-52
2022/08/06 10:31:06;;;;;;;14.35;8.60;;;;;;;28.63;100.00;97991.25;5172630;27;20054;-52
2022/08/06 10:33:39;;;;;;;12.95;9.38;;;;;;;29.42;100.00;97977.56;5172670;27;20148;-52
2022/08/06 10:36:10;;;;;;;9.70;8.50;;;;;;;29.05;100.00;97990.06;5173117;27;20053;-50
2022/08/06 10:38:39;;;;;;;10.10;8.52;;;;;;;28.90;100.00;97989.59;5172550;27;20057;-50
2022/08/06 10:41:09;;;;;;;9.07;8.15;;;;;;;29.28;100.00;97987.91;5172347;27;20497;-48
2022/08/06 10:43:37;;;;;;;10.80;8.55;;;;;;;28.97;100.00;97995.47;5172746;27;20069;-53
2022/08/06 10:46:06;;;;;;;10.27;8.13;;;;;;;28.12;100.00;98065.31;5172438;27;20141;-52
2022/08/06 10:48:33;;;;;;;10.05;8.95;;;;;;;28.23;100.00;98066.59;5172725;27;20050;-50
2022/08/06 10:51:01;;;;;;;9.80;8.35;;;;;;;28.26;100.00;98074.03;5172385;27;20053;-52
2022/08/06 10:53:31;;;;;;;10.45;9.35;;;;;;;28.19;100.00;98131.66;5172512;27;20141;-51
2022/08/06 10:56:00;;;;;;;10.65;9.52;;;;;;;28.14;100.00;98245.13;5172400;27;20500;-49
2022/08/06 10:58:27;;;;;;;14.27;9.27;;;;;;;28.06;100.00;98337.06;5172660;27;20077;-50
2022/08/06 11:00:53;;;;;;;11.30;10.07;;;;;;;27.90;100.00;98378.69;5172134;27;20042;-52
2022/08/06 11:03:27;;;;;;;12.45;10.00;;;;;;;27.78;100.00;98491.75;5172509;27;20082;-48
2022/08/06 11:05:56;;;;;;;;;;;;;;;27.80;100.00;98563.22;5172707;27;20050;-49
2022/08/06 11:08:41;;;;;;;11.55;10.40;;;;;;;27.91;100.00;98625.28;5172239;27;20012;-48
2022/08/06 11:11:26;;;;;;;11.45;10.38;;;;;;;27.76;100.00;98680.97;5172266;27;20057;-49
2022/08/06 11:14:02;;;;;;;11.75;10.48;;;;;;;27.94;100.00;98512.91;5172372;27;20052;-49
2022/08/06 11:16:30;;;;;;;12.48;10.18;;;;;;;28.23;100.00;98351.22;5171911;27;20572;-50
2022/08/06 11:19:06;;;;;;;13.10;9.65;;;;;;;28.51;100.00;98281.63;5172025;27;20536;-49
2022/08/06 11:21:40;;;;;;;14.18;10.63;;;;;;;28.95;100.00;98189.88;5171798;27;20050;-49
2022/08/06 11:24:07;;;;;;;13.05;9.80;;;;;;;29.50;100.00;98105.59;5171907;27;20420;-51
2022/08/06 11:26:37;;;;;;;10.15;9.00;;;;;;;29.85;100.00;98008.09;5171731;27;20093;-50
2022/08/06 11:29:05;;;;;;;9.68;8.77;;;;;;;29.70;100.00;97980.25;5172053;27;20068;-51